»·PEaware :: WAT390 KSEA-KFAT

WAT390 :: KSEA-KFAT

FLIGHT INFORMATION

Flight Status: Arrived
Operator:
Walker Air Transport
More flights by this operator :: More flights under this callsign
Pilot: Ewen S. (18928)
Aircraft: BOEING 737-200
(B732)
More flights by this aircraft type
Origin: KSEA Seattle-Tacoma Intl
United States
Destination: KFAT Fresno Yosemite Intl
United States
More flights between these airports :: More routes between these airports
Route: SUMMA2 LKV J5 FMG J7 FRA
File this flight plan on PilotEdge
Remarks:
Altitude:
(Current/Filed)
31,000ft
Speed:
(Current/Filed)
420kts
Departed: 03-Feb-21 12:05 PM
Arrived: 03-Feb-21 01:42 PM
Distance/Time
Traveled:
651nm/1:36
Distance/Time
To Go:
Arrived

Flight Plot

Page will automatically refresh every two minutes.

Flight plan parsing failed; only flown route is shown


Map Options




Map Legend


Flown Route
Filed Route
Departure Airport
Arrival Airport
Navaid (VOR, NDB)
Fix

Horizontal Profiles

Position Reports

Time Latitude Longitude Heading Altitude Ground
Speed
03-Feb-21 11:48 47.442094 -122.303150 297 478ft 0kts
03-Feb-21 11:49 47.442094 -122.303150 297 478ft 0kts
03-Feb-21 11:50 47.442094 -122.303150 297 478ft 0kts
03-Feb-21 11:51 47.442094 -122.303150 297 478ft 0kts
03-Feb-21 11:52 47.442094 -122.303150 297 478ft 0kts
03-Feb-21 11:53 47.442094 -122.303150 297 478ft 0kts
03-Feb-21 11:54 47.442094 -122.303150 297 478ft 0kts
03-Feb-21 11:55 47.442094 -122.303150 297 478ft 0kts
03-Feb-21 11:56 47.442086 -122.303127 297 478ft 1kts
03-Feb-21 11:57 47.442036 -122.302455 205 478ft 0kts
03-Feb-21 11:58 47.442115 -122.302420 198 478ft 0kts
03-Feb-21 11:59 47.442115 -122.302420 198 478ft 0kts
03-Feb-21 12:00 47.441603 -122.302515 178 478ft 12kts
03-Feb-21 12:01 47.439909 -122.304051 270 478ft 0kts
03-Feb-21 12:02 47.438857 -122.306309 179 478ft 21kts
03-Feb-21 12:03 47.432346 -122.305693 197 478ft 20kts
03-Feb-21 12:04 47.437996 -122.307997 0 478ft 106kts
03-Feb-21 12:05 47.482338 -122.310504 349 2454ft 189kts
03-Feb-21 12:06 47.542281 -122.309734 0 5821ft 229kts
03-Feb-21 12:07 47.599069 -122.270564 74 8808ft 279kts
03-Feb-21 12:08 47.570123 -122.166179 160 9022ft 294kts
03-Feb-21 12:09 47.492350 -122.195239 205 11383ft 295kts
03-Feb-21 12:10 47.414178 -122.243813 203 13096ft 319kts
03-Feb-21 12:11 47.325324 -122.274917 160 14575ft 348kts
03-Feb-21 12:12 47.230085 -122.226251 165 16565ft 374kts
03-Feb-21 12:13 47.124708 -122.187515 164 18302ft 399kts
03-Feb-21 12:14 47.013334 -122.145107 164 20143ft 414kts
03-Feb-21 12:15 46.900356 -122.100872 163 21732ft 430kts
03-Feb-21 12:16 46.785083 -122.056031 163 23070ft 442kts
03-Feb-21 12:17 46.684412 -122.016908 163 24215ft 454kts
03-Feb-21 12:18 46.563343 -121.970024 163 25685ft 467kts
03-Feb-21 12:19 46.434461 -121.920141 164 27070ft 479kts
03-Feb-21 12:20 46.306135 -121.870293 164 28289ft 490kts
03-Feb-21 12:21 46.172264 -121.819249 165 30030ft 483kts
03-Feb-21 12:22 46.043832 -121.771593 166 31102ft 490kts
03-Feb-21 12:23 45.906622 -121.722650 166 31170ft 516kts
03-Feb-21 12:24 45.791305 -121.681896 166 31149ft 525kts
03-Feb-21 12:25 45.650564 -121.631372 165 31150ft 538kts
03-Feb-21 12:26 45.512258 -121.580102 164 31150ft 554kts
03-Feb-21 12:27 45.358228 -121.521884 164 31167ft 567kts
03-Feb-21 12:28 45.210115 -121.465326 164 31193ft 569kts
03-Feb-21 12:29 45.054879 -121.407202 164 31180ft 567kts
03-Feb-21 12:30 44.902506 -121.351215 164 31152ft 567kts
03-Feb-21 12:31 44.749683 -121.296290 166 31155ft 562kts
03-Feb-21 12:32 44.595681 -121.242545 166 31155ft 559kts
03-Feb-21 12:33 44.496285 -121.208569 166 31144ft 558kts
03-Feb-21 12:34 44.339590 -121.147928 162 31091ft 558kts
03-Feb-21 12:36 44.189783 -121.086637 164 31104ft 557kts
03-Feb-21 12:37 44.037843 -121.033215 166 31114ft 557kts
03-Feb-21 12:38 43.890652 -120.987862 168 31116ft 556kts
03-Feb-21 12:39 43.741611 -120.943787 168 31118ft 553kts
03-Feb-21 12:40 43.598423 -120.897945 166 31119ft 551kts
03-Feb-21 12:41 43.463729 -120.848401 164 31119ft 550kts
03-Feb-21 12:42 43.321252 -120.792023 164 31119ft 550kts
03-Feb-21 12:43 43.172903 -120.735655 165 31116ft 549kts
03-Feb-21 12:44 43.023353 -120.685502 167 31069ft 550kts
03-Feb-21 12:45 42.876810 -120.638610 167 31069ft 550kts
03-Feb-21 12:46 42.728159 -120.588265 166 31073ft 547kts
03-Feb-21 12:47 42.578740 -120.536727 167 31073ft 545kts
03-Feb-21 12:48 42.431668 -120.484396 169 31070ft 543kts
03-Feb-21 12:49 42.283420 -120.438591 169 31094ft 541kts
03-Feb-21 12:50 42.135448 -120.395697 170 31072ft 540kts
03-Feb-21 12:51 41.988369 -120.353327 170 31073ft 540kts
03-Feb-21 12:51 41.872820 -120.317849 170 31076ft 538kts
03-Feb-21 12:53 41.704558 -120.266066 169 31113ft 534kts
03-Feb-21 12:53 41.584029 -120.228779 169 31109ft 533kts
03-Feb-21 12:54 41.439306 -120.184101 169 31110ft 532kts
03-Feb-21 12:56 41.270291 -120.132203 170 31110ft 531kts
03-Feb-21 12:56 41.150363 -120.095577 170 31112ft 531kts
03-Feb-21 12:57 41.009615 -120.053020 170 31112ft 530kts
03-Feb-21 12:58 40.874512 -120.012697 171 31107ft 529kts
03-Feb-21 12:59 40.731976 -119.969757 171 31105ft 511kts
03-Feb-21 13:00 40.596124 -119.932565 176 31105ft 484kts
03-Feb-21 13:01 40.463892 -119.911970 180 31106ft 465kts
03-Feb-21 13:02 40.335606 -119.892812 177 31109ft 461kts
03-Feb-21 13:03 40.207806 -119.859225 170 31123ft 473kts
03-Feb-21 13:04 40.081769 -119.799271 168 31131ft 483kts
03-Feb-21 13:05 39.949662 -119.764567 178 31129ft 484kts
03-Feb-21 13:06 39.816974 -119.739172 175 31129ft 491kts
03-Feb-21 13:07 39.682041 -119.699669 171 31129ft 498kts
03-Feb-21 13:08 39.546196 -119.660631 173 31129ft 499kts
03-Feb-21 13:09 39.410776 -119.652040 184 31139ft 489kts
03-Feb-21 13:10 39.274151 -119.647027 187 31149ft 487kts
03-Feb-21 13:11 39.137957 -119.648420 187 31151ft 486kts
03-Feb-21 13:12 39.002655 -119.648181 186 31136ft 486kts
03-Feb-21 13:13 38.868259 -119.645539 185 31137ft 485kts
03-Feb-21 13:14 38.733823 -119.641441 185 31137ft 483kts
03-Feb-21 13:15 38.601768 -119.636953 185 30955ft 455kts
03-Feb-21 13:16 38.475925 -119.633716 185 29027ft 450kts
03-Feb-21 13:17 38.351631 -119.631157 185 27424ft 439kts
03-Feb-21 13:18 38.230147 -119.628105 185 25799ft 432kts
03-Feb-21 13:19 38.110717 -119.624656 185 24331ft 423kts
03-Feb-21 13:20 37.995994 -119.621228 186 24141ft 417kts
03-Feb-21 13:21 37.882863 -119.613015 175 24171ft 432kts
03-Feb-21 13:22 37.763224 -119.594293 185 24154ft 425kts
03-Feb-21 13:23 37.651127 -119.600697 193 23114ft 394kts
03-Feb-21 13:24 37.546184 -119.611257 190 21194ft 381kts
03-Feb-21 13:25 37.441226 -119.609033 185 18588ft 367kts
03-Feb-21 13:26 37.341387 -119.601553 186 15705ft 347kts
03-Feb-21 13:27 37.246296 -119.599211 186 13515ft 335kts
03-Feb-21 13:28 37.154483 -119.596904 184 11486ft 324kts
03-Feb-21 13:29 37.068895 -119.594417 183 10972ft 281kts
03-Feb-21 13:30 36.994116 -119.595031 184 11000ft 282kts
03-Feb-21 13:31 36.915725 -119.585875 153 10435ft 279kts
03-Feb-21 13:32 36.860267 -119.528710 150 8865ft 267kts
03-Feb-21 13:33 36.800122 -119.476907 143 7019ft 258kts
03-Feb-21 13:34 36.733874 -119.477094 208 5088ft 250kts
03-Feb-21 13:35 36.674460 -119.519737 221 3565ft 229kts
03-Feb-21 13:36 36.687798 -119.567580 342 3079ft 170kts
03-Feb-21 13:37 36.714771 -119.609657 306 2215ft 155kts
03-Feb-21 13:38 36.736933 -119.647333 304 1480ft 149kts
03-Feb-21 13:39 36.759041 -119.686320 304 700ft 120kts
03-Feb-21 13:40 36.776996 -119.717876 304 342ft 65kts
03-Feb-21 13:41 36.779050 -119.724692 213 342ft 14kts
03-Feb-21 13:42 36.775881 -119.724103 125 342ft 15kts
03-Feb-21 13:43 36.773310 -119.719614 125 342ft 16kts
03-Feb-21 13:44 36.772200 -119.718327 215 342ft 0kts
03-Feb-21 13:45 36.772200 -119.718327 215 342ft 0kts
03-Feb-21 13:46 36.772200 -119.718327 215 342ft 0kts
03-Feb-21 13:47 36.772200 -119.718327 215 342ft 0kts

Navigation Log

Ident Type
Flight plan parsing failed, navigation log unavailable